Time;durP1;ratioP1;P1;durP2;ratioP2;P2;SDS_P1;SDS_P2;PMS_P1;PMS_P2;Temp;Humidity;BMP_temperature;BMP_pressure;BME280_temperature;BME280_humidity;BME280_pressure;Samples;Min_cycle;Max_cycle;Signal;HPM_P1;HPM_P2
2022/09/12 00:01:25;;;;;;;0.73;0.65;;;;;;;17.05;61.66;101166.69;5225610;28;20682;-82
2022/09/12 00:03:58;;;;;;;1.90;1.35;;;;;;;17.05;61.55;101164.03;5195949;28;20032;-81
2022/09/12 00:06:32;;;;;;;0.88;0.88;;;;;;;17.03;61.37;101171.19;5223742;28;20068;-82
2022/09/12 00:09:11;;;;;;;9.27;1.13;;;;;;;17.01;61.40;101171.28;5237864;28;20464;-82
2022/09/12 00:11:44;;;;;;;1.38;1.27;;;;;;;16.96;61.43;101166.19;5209362;28;20040;-82
2022/09/12 00:14:16;;;;;;;1.17;1.08;;;;;;;16.99;61.88;101159.88;5216036;28;20819;-82
2022/09/12 00:16:47;;;;;;;0.47;0.47;;;;;;;16.97;61.61;101152.00;5150362;28;20089;-82
2022/09/12 00:19:18;;;;;;;0.68;0.68;;;;;;;16.90;62.03;101150.50;5212338;28;20036;-81
2022/09/12 00:21:48;;;;;;;0.50;0.50;;;;;;;16.89;61.64;101151.47;5211861;28;20041;-80
2022/09/12 00:24:18;;;;;;;0.77;0.77;;;;;;;16.90;62.13;101157.63;5217182;28;20107;-81
2022/09/12 00:26:49;;;;;;;0.95;0.95;;;;;;;16.82;61.67;101148.25;5168402;28;20098;-80
2022/09/12 00:29:20;;;;;;;2.28;1.65;;;;;;;16.82;61.47;101147.38;5231203;28;20040;-81
2022/09/12 00:31:51;;;;;;;0.50;0.50;;;;;;;16.83;61.99;101146.44;5191672;28;20525;-81
2022/09/12 00:34:21;;;;;;;0.85;0.85;;;;;;;16.83;61.62;101141.13;5221857;28;20040;-82
2022/09/12 00:36:52;;;;;;;1.38;1.08;;;;;;;16.78;61.93;101144.00;5236867;28;20041;-82
2022/09/12 00:39:22;;;;;;;6.70;2.70;;;;;;;16.78;62.16;101137.84;5217349;28;20029;-81
2022/09/12 00:41:53;;;;;;;0.45;0.45;;;;;;;16.79;61.97;101142.22;5241528;28;20052;-80
2022/09/12 00:44:24;;;;;;;0.82;0.82;;;;;;;16.74;61.72;101137.13;5232777;28;20041;-81
2022/09/12 00:47:15;;;;;;;1.20;1.10;;;;;;;16.68;61.83;101129.47;5199084;28;20531;-81
2022/09/12 00:50:08;;;;;;;0.98;0.98;;;;;;;16.68;62.00;101127.69;5225099;28;20108;-81
2022/09/12 00:52:43;;;;;;;1.00;1.00;;;;;;;16.67;61.71;101131.25;5207328;28;20490;-80
2022/09/12 00:55:25;;;;;;;1.00;1.00;;;;;;;16.66;61.61;101132.19;5223873;28;20047;-81
2022/09/12 00:58:27;;;;;;;0.45;0.45;;;;;;;16.61;62.39;101126.25;5241584;28;20079;-81
2022/09/12 01:00:58;;;;;;;0.52;0.52;;;;;;;16.61;61.79;101123.59;5211246;28;20085;-81
2022/09/12 01:03:29;;;;;;;1.65;1.55;;;;;;;16.59;62.24;101122.78;5204918;28;20060;-81
2022/09/12 01:06:24;;;;;;;0.60;0.60;;;;;;;16.56;62.20;101125.59;5186232;28;20048;-81
2022/09/12 01:08:56;;;;;;;2.17;1.25;;;;;;;16.52;62.27;101124.88;5216715;28;20037;-81
2022/09/12 01:11:27;;;;;;;0.73;0.73;;;;;;;16.52;62.31;101124.88;5242814;28;20402;-81
2022/09/12 01:13:58;;;;;;;0.90;0.90;;;;;;;16.46;61.88;101121.66;5218809;28;20028;-82
2022/09/12 01:16:29;;;;;;;0.90;0.90;;;;;;;16.43;62.00;101124.44;5200767;28;20179;-81
2022/09/12 01:19:48;;;;;;;0.75;0.75;;;;;;;16.43;61.88;101120.00;5222143;28;20116;-80
2022/09/12 01:22:31;;;;;;;0.50;0.50;;;;;;;16.40;62.01;101114.00;5206044;28;20055;-82
2022/09/12 01:25:32;;;;;;;2.05;1.88;;;;;;;16.36;62.38;101113.28;5240139;28;20056;-82
2022/09/12 01:28:42;;;;;;;1.13;0.85;;;;;;;16.32;62.35;101112.53;5209426;28;20044;-81
2022/09/12 01:31:13;;;;;;;0.55;0.55;;;;;;;16.32;62.49;101117.81;5212695;28;20109;-81
2022/09/12 01:34:06;;;;;;;1.17;1.08;;;;;;;16.24;62.45;101112.00;5236620;28;20140;-81
2022/09/12 01:36:59;;;;;;;0.50;0.50;;;;;;;16.28;62.04;101110.97;5194720;28;20040;-81
2022/09/12 01:39:34;;;;;;;1.35;1.05;;;;;;;16.28;62.11;101110.97;5228511;28;20036;-81
2022/09/12 01:42:34;;;;;;;0.55;0.55;;;;;;;16.26;61.84;101110.16;5204109;28;20101;-80
2022/09/12 01:45:20;;;;;;;1.45;1.27;;;;;;;16.23;61.97;101106.78;5233966;28;20032;-81
2022/09/12 01:48:12;;;;;;;0.60;0.60;;;;;;;16.20;62.60;101113.94;5187741;28;20043;-82
2022/09/12 01:50:52;;;;;;;1.30;1.20;;;;;;;16.18;62.67;101104.34;5228469;28;20105;-82
2022/09/12 01:53:27;;;;;;;1.27;0.93;;;;;;;16.17;62.59;101103.50;5221471;28;20049;-81
2022/09/12 01:56:25;;;;;;;0.70;0.70;;;;;;;16.17;62.37;101097.31;5209388;28;20051;-81
2022/09/12 01:59:16;;;;;;;0.77;0.75;;;;;;;16.13;62.45;101093.13;5217163;28;20109;-81
2022/09/12 02:02:12;;;;;;;1.38;0.57;;;;;;;16.13;62.25;101090.47;5217545;28;20047;-81
2022/09/12 02:04:47;;;;;;;1.00;0.90;;;;;;;16.07;62.66;101086.31;5239751;28;20036;-81
2022/09/12 02:08:05;;;;;;;1.65;1.27;;;;;;;16.05;62.23;101088.16;5197871;28;20840;-81
2022/09/12 02:10:47;;;;;;;0.93;0.93;;;;;;;16.04;62.59;101076.72;5111654;28;20050;-81
2022/09/12 02:13:27;;;;;;;0.52;0.52;;;;;;;16.01;62.51;101076.84;5202857;28;20048;-82
2022/09/12 02:16:07;;;;;;;1.30;1.25;;;;;;;16.02;62.68;101072.44;5224150;28;20098;-80
2022/09/12 02:18:49;;;;;;;0.60;0.60;;;;;;;16.01;62.63;101076.84;5230901;28;20089;-81
2022/09/12 02:21:23;;;;;;;1.23;1.17;;;;;;;16.00;62.61;101080.41;5199227;28;20856;-81
2022/09/12 02:23:57;;;;;;;1.52;1.02;;;;;;;16.00;62.41;101079.56;5193266;28;20044;-80
2022/09/12 02:26:34;;;;;;;1.17;1.08;;;;;;;15.99;62.36;101075.19;5219358;28;20052;-80
2022/09/12 02:29:05;;;;;;;1.65;0.82;;;;;;;15.90;62.56;101068.53;5218340;28;20551;-81
2022/09/12 02:31:57;;;;;;;1.17;0.82;;;;;;;15.88;62.96;101070.38;5200941;28;20063;-81
2022/09/12 02:35:05;;;;;;;1.95;0.85;;;;;;;15.88;62.48;101067.72;5238024;28;20044;-81
2022/09/12 02:37:45;;;;;;;0.30;0.30;;;;;;;15.82;62.27;101063.53;5245176;28;20050;-81
2022/09/12 02:40:17;;;;;;;0.40;0.40;;;;;;;15.80;62.57;101065.38;5224501;28;20132;-81
2022/09/12 02:42:48;;;;;;;0.50;0.50;;;;;;;15.81;62.33;101066.25;5226009;28;20029;-81
2022/09/12 02:45:21;;;;;;;0.50;0.50;;;;;;;15.82;62.83;101070.63;5226163;28;20029;-81
2022/09/12 02:48:16;;;;;;;1.55;1.15;;;;;;;15.80;62.82;101072.47;5207025;28;20032;-81
2022/09/12 02:50:46;;;;;;;1.35;1.25;;;;;;;15.80;62.22;101061.88;5222577;28;20040;-81
2022/09/12 02:53:17;;;;;;;4.55;1.27;;;;;;;15.74;62.29;101065.66;5204707;28;20029;-81
2022/09/12 02:55:49;;;;;;;0.73;0.70;;;;;;;15.72;62.47;101060.44;5196503;28;20050;-80
2022/09/12 02:58:23;;;;;;;0.85;0.85;;;;;;;15.70;62.78;101057.00;5207135;28;20033;-81
2022/09/12 03:01:01;;;;;;;0.93;0.88;;;;;;;15.72;62.75;101056.91;5238345;28;20041;-82
2022/09/12 03:04:02;;;;;;;0.82;0.82;;;;;;;15.68;62.78;101056.19;5234501;28;20358;-80
2022/09/12 03:07:00;;;;;;;0.90;0.90;;;;;;;15.64;62.43;101054.63;5179314;28;20066;-81
2022/09/12 03:09:58;;;;;;;1.60;0.90;;;;;;;15.63;62.86;101049.38;5222371;28;20469;-81
2022/09/12 03:12:48;;;;;;;0.52;0.52;;;;;;;15.63;62.30;101044.97;5193648;28;20084;-80
2022/09/12 03:15:31;;;;;;;0.75;0.75;;;;;;;15.63;62.89;101041.44;5230033;28;20024;-81
2022/09/12 03:18:18;;;;;;;1.10;1.08;;;;;;;15.60;62.67;101045.06;5220649;28;20093;-81
2022/09/12 03:21:06;;;;;;;0.85;0.85;;;;;;;15.48;63.35;101040.31;5225717;28;20036;-80
2022/09/12 03:23:53;;;;;;;1.05;1.05;;;;;;;15.49;63.16;101047.34;5236658;28;20059;-81
2022/09/12 03:26:38;;;;;;;4.05;1.67;;;;;;;15.51;62.78;101049.00;5207269;28;20056;-81
2022/09/12 03:29:11;;;;;;;0.95;0.95;;;;;;;15.50;62.83;101054.31;5245100;28;20067;-81
2022/09/12 03:31:50;;;;;;;1.48;1.38;;;;;;;15.47;62.73;101057.13;5194897;28;20144;-81
2022/09/12 03:34:23;;;;;;;1.27;0.63;;;;;;;15.45;62.65;101057.19;5229470;28;20108;-82
2022/09/12 03:36:54;;;;;;;2.17;1.85;;;;;;;15.45;62.79;101056.31;5214849;28;20044;-82
2022/09/12 03:39:26;;;;;;;4.35;2.28;;;;;;;15.41;62.90;101047.66;5211702;28;20121;-81
2022/09/12 03:41:57;;;;;;;1.33;1.23;;;;;;;15.39;62.81;101047.72;5223020;28;20032;-82
2022/09/12 03:44:27;;;;;;;2.90;1.63;;;;;;;15.38;63.16;101051.28;5218556;28;20494;-81
2022/09/12 03:46:58;;;;;;;1.05;1.05;;;;;;;15.34;62.68;101054.97;5224121;28;20168;-82
2022/09/12 03:49:28;;;;;;;1.55;1.45;;;;;;;15.35;62.81;101046.13;5184684;28;20029;-81
2022/09/12 03:51:59;;;;;;;1.42;1.33;;;;;;;15.30;63.00;101050.75;5217386;28;20052;-82
2022/09/12 03:54:29;;;;;;;1.95;1.80;;;;;;;15.29;63.45;101045.53;5202819;28;20029;-82
2022/09/12 03:57:07;;;;;;;1.33;1.20;;;;;;;15.27;63.43;101048.22;5173337;28;20090;-79
2022/09/12 03:59:38;;;;;;;0.68;0.68;;;;;;;15.27;63.25;101040.28;5208024;28;20056;-81
2022/09/12 04:02:11;;;;;;;0.82;0.82;;;;;;;15.26;63.22;101042.09;5215049;28;20060;-81
2022/09/12 04:04:43;;;;;;;;;;;;;;;15.26;63.13;101035.94;5232846;28;20066;-80
2022/09/12 04:07:15;;;;;;;2.15;1.30;;;;;;;15.24;63.42;101037.78;5231382;28;19911;-81
2022/09/12 04:09:45;;;;;;;0.70;0.70;;;;;;;15.26;63.57;101033.28;5192555;28;20028;-80
2022/09/12 04:12:16;;;;;;;1.35;1.25;;;;;;;15.28;63.47;101028.81;5164474;28;20037;-80
2022/09/12 04:14:46;;;;;;;0.80;0.80;;;;;;;15.23;63.24;101031.63;5212942;28;20507;-81
2022/09/12 04:17:17;;;;;;;1.55;1.45;;;;;;;15.21;63.41;101025.53;5193862;28;20044;-80
2022/09/12 04:19:48;;;;;;;0.98;0.95;;;;;;;15.20;63.17;101029.13;5197504;28;20013;-82
2022/09/12 04:22:19;;;;;;;1.90;1.80;;;;;;;15.22;63.45;101024.63;5200361;28;20394;-81
2022/09/12 04:24:49;;;;;;;2.47;1.38;;;;;;;15.18;63.13;101027.47;5205074;28;20067;-81
2022/09/12 04:27:20;;;;;;;1.45;1.35;;;;;;;15.14;63.37;101025.88;5158007;28;20514;-81
2022/09/12 04:29:50;;;;;;;1.65;1.55;;;;;;;15.16;63.18;101026.69;5219802;28;20029;-81
2022/09/12 04:32:21;;;;;;;2.97;2.15;;;;;;;15.15;63.57;101028.44;5196669;28;20207;-81
2022/09/12 04:34:52;;;;;;;1.17;1.08;;;;;;;15.15;63.00;101028.44;5217739;28;20082;-81
2022/09/12 04:37:23;;;;;;;3.92;1.08;;;;;;;15.11;63.31;101022.44;5184914;28;20154;-81
2022/09/12 04:39:56;;;;;;;4.22;2.30;;;;;;;15.16;64.12;101024.88;5187096;28;20528;-81
2022/09/12 04:42:28;;;;;;;2.25;2.05;;;;;;;15.09;63.54;101026.06;5167876;28;20490;-81
2022/09/12 04:44:58;;;;;;;1.13;1.13;;;;;;;15.10;63.55;101023.34;5190771;28;20037;-80
2022/09/12 04:47:29;;;;;;;2.47;1.42;;;;;;;15.07;63.62;101020.84;5150402;28;20180;-81
2022/09/12 04:50:00;;;;;;;0.77;0.77;;;;;;;15.08;63.73;101019.06;5193823;28;20067;-81
2022/09/12 04:52:54;;;;;;;1.05;1.05;;;;;;;15.09;64.14;101011.06;5185350;28;20066;-80
2022/09/12 04:55:27;;;;;;;1.10;1.05;;;;;;;15.09;63.99;101020.78;5209281;28;20025;-81
2022/09/12 04:58:00;;;;;;;1.75;1.60;;;;;;;15.06;63.79;101016.50;5241057;28;20028;-81
2022/09/12 05:00:33;;;;;;;2.40;1.50;;;;;;;14.99;64.12;101016.78;5188889;28;20049;-81
2022/09/12 05:03:07;;;;;;;2.70;1.70;;;;;;;15.00;64.07;101010.59;5174983;28;20041;-80
2022/09/12 05:05:43;;;;;;;1.27;1.15;;;;;;;14.95;64.14;101011.66;5191554;28;20413;-80
2022/09/12 05:08:13;;;;;;;2.42;2.25;;;;;;;14.99;63.86;101004.47;5173731;28;20028;-80
2022/09/12 05:10:46;;;;;;;1.15;1.15;;;;;;;14.94;63.76;101009.94;5203072;28;20089;-81
2022/09/12 05:13:17;;;;;;;1.25;1.17;;;;;;;14.93;64.09;101013.50;5234692;28;20100;-80
2022/09/12 05:15:57;;;;;;;;;;;;;;;14.92;64.13;101001.19;5227141;28;20084;-80
2022/09/12 05:18:29;;;;;;;1.52;1.42;;;;;;;14.92;63.98;101008.25;5221993;28;19916;-80
2022/09/12 05:21:10;;;;;;;3.03;2.28;;;;;;;14.97;63.77;101008.94;5195173;28;20049;-80
2022/09/12 05:23:41;;;;;;;1.25;1.15;;;;;;;14.94;63.78;101014.34;5219440;28;20048;-80
2022/09/12 05:26:15;;;;;;;2.78;1.80;;;;;;;14.95;64.01;101011.66;5171880;28;20116;-81
2022/09/12 05:28:47;;;;;;;1.40;1.02;;;;;;;14.93;64.06;101012.59;5215150;28;20024;-81
2022/09/12 05:31:24;;;;;;;1.30;1.20;;;;;;;14.87;64.43;101013.75;5219231;28;20040;-81
2022/09/12 05:33:56;;;;;;;2.70;2.47;;;;;;;14.89;64.02;101016.31;5201070;28;20039;-81
2022/09/12 05:36:28;;;;;;;0.85;0.85;;;;;;;14.91;64.18;101009.19;5207430;28;20048;-81
2022/09/12 05:38:59;;;;;;;2.67;1.63;;;;;;;14.90;64.38;101002.19;5224236;28;20515;-81
2022/09/12 05:41:53;;;;;;;0.73;0.73;;;;;;;14.92;63.98;101005.59;5182012;28;20067;-81
2022/09/12 05:44:24;;;;;;;3.00;1.63;;;;;;;14.92;64.21;101002.97;5184634;28;20136;-81
2022/09/12 05:46:57;;;;;;;2.22;1.40;;;;;;;14.90;64.18;101007.47;5218766;28;20132;-81
2022/09/12 05:49:28;;;;;;;3.00;2.05;;;;;;;14.92;64.48;101010.88;5196293;28;20028;-81
2022/09/12 05:51:59;;;;;;;1.27;1.10;;;;;;;14.90;64.74;101012.75;5195850;28;20053;-81
2022/09/12 05:54:40;;;;;;;1.27;1.17;;;;;;;14.96;64.35;101023.06;5218551;28;20032;-81
2022/09/12 05:57:10;;;;;;;1.20;1.20;;;;;;;14.93;64.26;101018.78;5197088;28;20471;-82
2022/09/12 05:59:53;;;;;;;2.95;2.45;;;;;;;14.94;64.07;101023.13;5197456;28;20029;-81
2022/09/12 06:02:30;;;;;;;2.08;1.80;;;;;;;14.92;64.75;101032.91;5203858;28;20036;-82
2022/09/12 06:05:21;;;;;;;1.48;1.38;;;;;;;14.93;64.38;101028.47;5217686;28;20123;-82
2022/09/12 06:08:26;;;;;;;2.47;2.15;;;;;;;14.92;65.47;101032.03;5187349;28;20425;-82
2022/09/12 06:11:15;;;;;;;2.97;2.05;;;;;;;14.99;66.09;101028.25;5188439;28;20048;-81
2022/09/12 06:13:59;;;;;;;1.88;1.77;;;;;;;14.99;65.14;101028.25;5191039;28;20055;-81
2022/09/12 06:16:42;;;;;;;2.90;1.98;;;;;;;15.00;65.58;101032.56;5184566;28;20046;-83
2022/09/12 06:19:26;;;;;;;2.53;2.33;;;;;;;15.02;65.28;101033.38;5209911;28;20048;-81
2022/09/12 06:22:09;;;;;;;10.95;2.70;;;;;;;15.02;65.39;101038.66;5172450;28;20156;-81
2022/09/12 06:24:39;;;;;;;1.08;1.00;;;;;;;15.07;65.50;101038.47;5191773;28;20028;-82
2022/09/12 06:27:11;;;;;;;3.38;2.75;;;;;;;15.09;64.95;101034.00;5181846;28;20508;-81
2022/09/12 06:29:42;;;;;;;2.25;1.73;;;;;;;15.14;64.93;101041.75;5201071;28;20037;-81
2022/09/12 06:32:13;;;;;;;10.27;2.92;;;;;;;15.14;65.08;101036.44;5182750;28;20083;-81
2022/09/12 06:34:47;;;;;;;1.98;1.48;;;;;;;15.16;65.29;101037.25;5204125;28;20340;-81
2022/09/12 06:37:17;;;;;;;1.95;1.70;;;;;;;15.20;65.02;101036.19;5194830;28;20103;-82
2022/09/12 06:39:48;;;;;;;2.55;2.35;;;;;;;15.23;65.26;101031.63;5204203;28;20044;-80
2022/09/12 06:42:18;;;;;;;4.25;2.40;;;;;;;15.25;65.21;101027.16;5189830;28;20048;-80
2022/09/12 06:44:49;;;;;;;2.95;1.85;;;;;;;15.26;65.88;101030.63;5190711;28;20054;-80
2022/09/12 06:47:20;;;;;;;1.50;1.33;;;;;;;15.32;65.57;101032.16;5181131;28;20037;-80
2022/09/12 06:49:52;;;;;;;3.10;2.88;;;;;;;15.34;65.46;101031.19;5205009;28;20016;-81
2022/09/12 06:52:29;;;;;;;2.15;1.98;;;;;;;15.38;65.76;101034.56;5186129;28;20053;-80
2022/09/12 06:55:25;;;;;;;1.67;1.58;;;;;;;15.39;66.47;101025.69;5169642;28;20055;-81
2022/09/12 06:57:56;;;;;;;3.88;2.25;;;;;;;15.45;66.08;101037.81;5182716;28;20025;-80
2022/09/12 07:00:27;;;;;;;2.03;1.83;;;;;;;15.49;66.06;101036.75;5218827;28;20075;-81
2022/09/12 07:02:58;;;;;;;1.60;1.33;;;;;;;15.51;67.02;101029.59;5182593;28;20020;-80
2022/09/12 07:05:31;;;;;;;3.22;2.30;;;;;;;15.56;66.72;101030.28;5138838;28;20115;-79
2022/09/12 07:08:04;;;;;;;3.30;2.05;;;;;;;15.61;67.66;101030.09;5190497;28;20045;-79
2022/09/12 07:10:34;;;;;;;1.42;1.30;;;;;;;15.64;66.73;101032.59;5202671;28;20033;-79
2022/09/12 07:13:12;;;;;;;1.45;1.35;;;;;;;15.70;67.07;101025.25;5147546;28;20048;-79
2022/09/12 07:15:50;;;;;;;2.83;2.45;;;;;;;15.72;67.38;101031.34;5211971;28;20413;-79
2022/09/12 07:18:22;;;;;;;7.47;2.28;;;;;;;15.80;67.23;101036.28;5222682;28;20032;-81
2022/09/12 07:21:05;;;;;;;4.63;1.77;;;;;;;15.85;67.15;101044.03;5214767;28;20072;-79
2022/09/12 07:23:54;;;;;;;4.95;2.35;;;;;;;15.91;67.41;101041.13;5205600;28;20115;-80
2022/09/12 07:26:29;;;;;;;3.30;1.95;;;;;;;15.94;68.41;101038.34;5208402;28;20116;-81
2022/09/12 07:29:20;;;;;;;2.83;1.58;;;;;;;16.01;67.80;101038.94;5221995;28;20060;-81
2022/09/12 07:31:51;;;;;;;1.67;1.58;;;;;;;16.07;67.90;101045.75;5147619;28;20047;-80
2022/09/12 07:34:31;;;;;;;3.13;2.47;;;;;;;16.08;68.47;101040.38;5195248;28;20127;-80
2022/09/12 07:37:07;;;;;;;2.08;1.50;;;;;;;16.13;69.80;101038.38;5235223;28;20044;-81
2022/09/12 07:39:45;;;;;;;2.85;2.63;;;;;;;16.22;67.50;101039.75;5210636;28;20029;-81
2022/09/12 07:42:16;;;;;;;2.22;1.48;;;;;;;16.26;66.78;101033.38;5200190;28;20124;-81
2022/09/12 07:44:49;;;;;;;2.53;2.33;;;;;;;16.34;69.34;101036.53;5254566;28;20024;-81
2022/09/12 07:47:24;;;;;;;2.80;1.85;;;;;;;16.33;68.01;101024.22;5232201;28;20025;-82
2022/09/12 07:49:57;;;;;;;1.77;1.55;;;;;;;16.43;66.91;101023.78;5204494;28;20052;-81
2022/09/12 07:52:31;;;;;;;1.85;1.75;;;;;;;16.47;67.51;101030.69;5187974;28;20643;-81
2022/09/12 07:55:12;;;;;;;3.00;2.72;;;;;;;16.49;68.13;101034.97;5205282;28;20028;-81
2022/09/12 07:57:51;;;;;;;4.32;2.72;;;;;;;16.56;67.07;101039.97;5217384;28;20032;-81
2022/09/12 08:00:22;;;;;;;2.58;2.38;;;;;;;16.56;67.96;101040.84;5167636;28;20043;-84
2022/09/12 08:03:03;;;;;;;;;;;;;;;;;;;;;
2022/09/12 08:06:14;;;;;;;1.48;1.38;;;;;;;16.68;70.16;101031.44;5209705;28;20032;-81
2022/09/12 08:09:16;;;;;;;4.25;2.08;;;;;;;16.68;69.99;101032.28;5224769;28;20037;-81
2022/09/12 08:12:14;;;;;;;1.65;1.55;;;;;;;16.69;69.79;101025.22;5182295;28;20429;-82
2022/09/12 08:14:53;;;;;;;0.70;0.70;;;;;;;16.71;69.45;101033.94;5222142;28;20040;-81
2022/09/12 08:17:24;;;;;;;2.72;2.28;;;;;;;16.81;67.62;101039.69;5215087;28;20721;-80
2022/09/12 08:20:00;;;;;;;2.50;1.73;;;;;;;16.80;67.87;101036.16;5232038;28;20044;-81
2022/09/12 08:22:40;;;;;;;5.03;2.28;;;;;;;16.80;68.43;101041.44;5194338;28;20573;-80
2022/09/12 08:25:14;;;;;;;4.65;4.25;;;;;;;16.88;69.60;101040.22;5201521;28;20511;-80
2022/09/12 08:27:45;;;;;;;5.07;1.73;;;;;;;16.82;69.37;101042.25;5200687;28;20989;-80
2022/09/12 08:30:23;;;;;;;2.70;1.27;;;;;;;16.87;68.60;101047.31;5188670;28;20116;-80
2022/09/12 08:32:54;;;;;;;1.95;1.75;;;;;;;16.89;69.98;101042.81;5203291;28;20409;-81
2022/09/12 08:35:29;;;;;;;1.60;1.50;;;;;;;16.89;69.51;101042.81;5206096;28;20039;-81
2022/09/12 08:38:25;;;;;;;1.77;1.55;;;;;;;16.96;71.19;101043.38;5206497;28;20131;-81
2022/09/12 08:41:33;;;;;;;1.65;1.55;;;;;;;16.93;71.51;101039.09;5198782;28;20037;-81
2022/09/12 08:44:37;;;;;;;2.03;1.42;;;;;;;17.01;71.83;101037.84;5186585;28;20041;-80
2022/09/12 08:47:16;;;;;;;2.47;2.30;;;;;;;17.06;70.56;101036.69;5179589;28;20088;-81
2022/09/12 08:50:14;;;;;;;1.35;1.25;;;;;;;17.17;70.81;101035.31;5176498;28;20033;-81
2022/09/12 08:53:01;;;;;;;1.42;1.33;;;;;;;17.14;70.45;101031.03;5178510;28;20098;-80
2022/09/12 08:55:50;;;;;;;1.45;1.33;;;;;;;17.16;71.98;101031.78;5217341;28;20028;-81
2022/09/12 08:58:39;;;;;;;4.50;2.03;;;;;;;17.21;74.42;101031.56;5203383;28;20036;-80
2022/09/12 09:01:30;;;;;;;1.08;0.98;;;;;;;17.28;73.02;101028.53;5212460;28;20032;-81
2022/09/12 09:04:49;;;;;;;1.77;1.50;;;;;;;17.34;73.08;101027.38;5191682;28;20045;-80
2022/09/12 09:08:13;;;;;;;2.40;1.23;;;;;;;17.39;74.13;101014.72;5164108;28;20044;-80
2022/09/12 09:10:51;;;;;;;;;;;;;;;17.46;73.85;101016.13;5195062;28;20532;-80
2022/09/12 09:17:17;;;;;;;4.55;1.25;;;;;;;17.62;73.68;101010.91;5206431;28;20120;-80
2022/09/12 09:20:12;;;;;;;1.40;1.30;;;;;;;17.62;74.28;101015.31;5225496;28;20035;-80
2022/09/12 09:22:50;;;;;;;2.63;1.40;;;;;;;17.64;72.87;101010.81;5183750;28;20147;-81
2022/09/12 09:25:26;;;;;;;0.80;0.80;;;;;;;17.72;72.67;101011.25;5200348;28;20059;-81
2022/09/12 09:28:04;;;;;;;1.05;0.50;;;;;;;17.73;71.92;101009.47;5191846;28;20049;-81
2022/09/12 09:30:42;;;;;;;1.77;1.25;;;;;;;17.82;72.92;101010.78;5202556;28;20136;-82
2022/09/12 09:33:29;;;;;;;1.67;1.58;;;;;;;17.87;72.59;101011.38;5210586;28;20129;-81
2022/09/12 09:36:17;;;;;;;2.30;1.58;;;;;;;17.91;71.62;101000.53;5214399;28;20035;-83
2022/09/12 09:38:59;;;;;;;6.07;1.88;;;;;;;17.98;71.17;101001.09;5189764;28;20033;-81
2022/09/12 09:41:52;;;;;;;2.03;1.63;;;;;;;18.05;70.79;100999.81;5182042;28;20456;-81
2022/09/12 09:44:22;;;;;;;4.82;2.15;;;;;;;18.15;72.15;100992.19;5179200;28;20088;-80
2022/09/12 09:46:57;;;;;;;1.35;1.02;;;;;;;18.14;71.85;100994.94;5168213;28;20444;-81
2022/09/12 09:49:31;;;;;;;1.40;1.20;;;;;;;18.15;71.67;100994.84;5195247;28;20702;-80
2022/09/12 09:52:02;;;;;;;2.10;1.90;;;;;;;18.16;71.52;100983.28;5201475;28;20048;-79
2022/09/12 09:54:56;;;;;;;0.80;0.80;;;;;;;18.22;71.80;100988.25;5207326;28;20063;-79
2022/09/12 09:57:33;;;;;;;5.50;2.10;;;;;;;18.32;72.05;100982.44;5221598;28;20043;-80
2022/09/12 10:00:24;;;;;;;1.63;1.52;;;;;;;18.36;71.20;100984.00;5223790;28;20041;-80
2022/09/12 10:02:58;;;;;;;1.13;1.13;;;;;;;18.47;71.16;100975.44;5228695;28;20036;-80
2022/09/12 10:05:40;;;;;;;;;;;;;;;;;;;;;
2022/09/12 10:08:22;;;;;;;1.48;1.38;;;;;;;18.56;70.88;100975.75;5222603;28;20064;-82
2022/09/12 10:11:25;;;;;;;1.52;1.42;;;;;;;18.69;69.87;100964.44;5228668;28;20047;-80
2022/09/12 10:14:33;;;;;;;1.98;1.75;;;;;;;18.66;70.75;100956.63;5197093;28;20075;-81
2022/09/12 10:17:38;;;;;;;11.27;1.63;;;;;;;18.77;71.11;100966.63;5214472;28;20134;-81
2022/09/12 10:20:30;;;;;;;0.77;0.77;;;;;;;18.80;69.37;100961.16;5216605;28;20554;-81
2022/09/12 10:23:29;;;;;;;0.73;0.60;;;;;;;18.94;69.84;100963.06;5178207;28;20458;-81
2022/09/12 10:26:03;;;;;;;0.80;0.80;;;;;;;18.97;70.46;100963.72;5214363;28;20704;-81
2022/09/12 10:28:50;;;;;;;0.47;0.47;;;;;;;19.08;69.60;100960.44;5193288;28;20036;-81
2022/09/12 10:31:32;;;;;;;0.60;0.60;;;;;;;19.15;69.31;100956.44;5222443;28;20033;-81
2022/09/12 10:34:29;;;;;;;;;;;;;;;;;;;;;
2022/09/12 10:37:42;;;;;;;0.57;0.57;;;;;;;19.18;68.98;100937.66;5222487;28;20048;-82
2022/09/12 10:40:27;;;;;;;0.65;0.52;;;;;;;19.25;66.84;100940.81;5218763;28;20497;-82
2022/09/12 10:43:09;;;;;;;2.05;0.68;;;;;;;19.23;63.99;100940.06;5176578;28;20132;-81
2022/09/12 10:45:42;;;;;;;1.05;1.05;;;;;;;19.42;64.60;100941.59;5185735;28;20033;-82
2022/09/12 10:48:30;;;;;;;1.17;0.98;;;;;;;19.47;64.82;100932.38;5196244;28;20059;-82
2022/09/12 10:51:25;;;;;;;2.35;1.45;;;;;;;19.44;65.12;100924.59;5205728;28;20033;-83
2022/09/12 10:54:11;;;;;;;3.83;1.08;;;;;;;19.47;65.29;100919.06;5182051;28;20036;-81
2022/09/12 10:57:10;;;;;;;19.75;2.97;;;;;;;19.55;63.21;100920.38;5209573;28;20042;-82
2022/09/12 11:00:13;;;;;;;0.30;0.30;;;;;;;19.62;63.16;100914.59;5202140;28;20028;-82
2022/09/12 11:03:48;;;;;;;0.82;0.82;;;;;;;19.79;63.31;100907.38;5219868;28;20047;-82
2022/09/12 11:06:53;;;;;;;0.55;0.55;;;;;;;19.85;62.00;100907.00;5159399;28;20047;-81
2022/09/12 11:10:17;;;;;;;0.30;0.30;;;;;;;19.87;59.39;100907.78;5155845;28;20626;-81
2022/09/12 11:12:50;;;;;;;0.40;0.40;;;;;;;19.97;57.83;100905.38;5195700;28;20068;-81
2022/09/12 11:15:45;;;;;;;0.20;0.20;;;;;;;19.96;60.45;100908.97;5201591;28;20047;-80
2022/09/12 11:18:41;;;;;;;0.50;0.50;;;;;;;20.10;59.66;100895.66;5219356;28;20048;-81
2022/09/12 11:21:31;;;;;;;0.30;0.30;;;;;;;20.04;59.64;100893.38;5186504;28;20025;-81
2022/09/12 11:24:11;;;;;;;0.68;0.40;;;;;;;20.24;58.37;100888.56;5232615;28;20562;-82
2022/09/12 11:27:00;;;;;;;0.30;0.30;;;;;;;20.38;58.51;100888.50;5217135;28;20180;-83
2022/09/12 11:29:57;;;;;;;0.27;0.27;;;;;;;20.42;58.32;100876.72;5211076;28;20044;-83
2022/09/12 11:33:31;;;;;;;0.30;0.30;;;;;;;20.47;58.53;100880.84;5211040;28;20043;-82
2022/09/12 11:36:22;;;;;;;0.60;0.60;;;;;;;20.71;56.86;100883.72;5220242;28;20167;-82
2022/09/12 11:38:56;;;;;;;0.30;0.30;;;;;;;20.64;59.22;100885.09;5186583;28;20594;-82
2022/09/12 11:41:46;;;;;;;;;;;;;;;;;;;;;
2022/09/12 11:44:39;;;;;;;0.47;0.47;;;;;;;21.17;55.23;100866.41;5213262;28;20060;-82
2022/09/12 11:47:19;;;;;;;0.68;0.68;;;;;;;21.14;53.91;100874.59;5215396;28;20048;-82
2022/09/12 11:49:57;;;;;;;0.35;0.35;;;;;;;21.20;54.51;100879.50;5206416;28;20654;-82
2022/09/12 11:52:46;;;;;;;;;;;;;;;;;;;;;
2022/09/12 11:55:26;;;;;;;0.20;0.20;;;;;;;21.20;57.00;100872.38;5199349;28;20032;-82
2022/09/12 11:58:35;;;;;;;0.40;0.40;;;;;;;21.38;55.53;100864.88;5207396;28;20040;-82
2022/09/12 12:01:19;;;;;;;0.45;0.45;;;;;;;21.59;54.89;100859.03;5184035;28;20371;-82
2022/09/12 12:04:03;;;;;;;0.40;0.40;;;;;;;21.54;57.55;100854.00;5165739;28;20044;-82
2022/09/12 12:07:01;;;;;;;2.78;0.63;;;;;;;21.62;57.02;100856.13;5193560;28;20048;-82
2022/09/12 12:09:50;;;;;;;0.37;0.37;;;;;;;21.78;54.85;100850.53;5233519;28;20041;-82
2022/09/12 12:12:26;;;;;;;0.65;0.65;;;;;;;21.81;55.72;100852.13;5177508;28;20127;-81
2022/09/12 12:14:58;;;;;;;0.52;0.52;;;;;;;21.88;56.45;100842.69;5202072;28;20341;-82
2022/09/12 12:17:32;;;;;;;0.50;0.50;;;;;;;21.96;55.62;100844.81;5226351;28;20060;-81
2022/09/12 12:20:16;;;;;;;0.60;0.60;;;;;;;22.04;56.56;100841.56;5204436;28;20025;-82
2022/09/12 12:23:09;;;;;;;0.30;0.30;;;;;;;22.16;55.86;100836.19;5220679;28;20037;-82
2022/09/12 12:25:56;;;;;;;0.45;0.45;;;;;;;22.33;54.85;100840.28;5210857;28;20522;-81
2022/09/12 12:28:49;;;;;;;0.63;0.63;;;;;;;22.39;54.70;100840.78;5222931;28;20044;-82
2022/09/12 12:31:20;;;;;;;0.25;0.25;;;;;;;22.40;54.44;100829.97;5227984;28;20173;-82
2022/09/12 12:34:22;;;;;;;0.93;0.60;;;;;;;22.49;54.88;100825.78;5211059;28;20502;-82
2022/09/12 12:36:56;;;;;;;0.73;0.57;;;;;;;22.54;56.45;100820.94;5174396;28;20075;-81
2022/09/12 12:39:54;;;;;;;0.43;0.43;;;;;;;22.79;53.10;100816.38;5226843;28;20041;-81
2022/09/12 12:42:37;;;;;;;5.25;0.70;;;;;;;22.82;53.87;100818.81;5183707;28;20060;-82